createdAt,value
2022-09-26T00:00:10.123Z,100458.31
2022-09-26T00:03:05.333Z,100454.81
2022-09-26T00:05:35.992Z,100453.94
2022-09-26T00:08:06.965Z,100452.16
2022-09-26T00:10:37.320Z,100450.41
2022-09-26T00:13:07.893Z,100446.00
2022-09-26T00:15:38.151Z,100436.31
2022-09-26T00:18:09.630Z,100436.31
2022-09-26T00:20:40.121Z,100437.22
2022-09-26T00:23:10.241Z,100440.72
2022-09-26T00:25:45.893Z,100438.97
2022-09-26T00:28:16.631Z,100433.69
2022-09-26T00:30:47.142Z,100430.16
2022-09-26T00:33:19.252Z,100430.16
2022-09-26T00:35:52.123Z,100425.75
2022-09-26T00:38:22.784Z,100423.97
2022-09-26T00:40:53.239Z,100421.34
2022-09-26T00:43:31.950Z,100416.03
2022-09-26T00:46:08.082Z,100405.50
2022-09-26T00:48:42.481Z,100399.31
2022-09-26T00:51:13.701Z,100399.31
2022-09-26T00:53:47.801Z,100407.22
2022-09-26T00:56:23.851Z,100403.72
2022-09-26T00:58:57.971Z,100403.69
2022-09-26T01:01:28.240Z,100398.38
2022-09-26T01:04:00.772Z,100397.44
2022-09-26T01:06:30.962Z,100392.19
2022-09-26T01:09:09.058Z,100381.59
2022-09-26T01:11:42.451Z,100391.28
2022-09-26T01:14:14.408Z,100389.53
2022-09-26T01:16:49.511Z,100377.19
2022-09-26T01:19:31.063Z,100375.38
2022-09-26T01:22:41.161Z,100375.34
2022-09-26T01:25:23.201Z,100379.75
2022-09-26T01:28:17.333Z,100370.03
2022-09-26T01:30:54.816Z,100371.81
2022-09-26T01:33:43.754Z,100370.94
2022-09-26T01:36:24.523Z,100370.06
2022-09-26T01:39:04.821Z,100361.22
2022-09-26T01:41:48.421Z,100365.66
2022-09-26T01:44:29.852Z,100364.78
2022-09-26T01:47:06.202Z,100369.13
2022-09-26T01:49:39.722Z,100357.69
2022-09-26T01:52:15.799Z,100355.94
2022-09-26T01:54:51.564Z,100354.19
2022-09-26T01:57:39.601Z,100354.16
2022-09-26T02:00:13.452Z,100348.84
2022-09-26T02:02:49.999Z,100349.75
2022-09-26T02:05:27.711Z,100352.38
2022-09-26T02:08:02.584Z,100338.31
2022-09-26T02:10:39.652Z,100348.84
2022-09-26T02:13:18.031Z,100344.41
2022-09-26T02:15:51.921Z,100337.41
2022-09-26T02:18:32.061Z,100339.16
2022-09-26T02:21:09.162Z,100335.63
2022-09-26T02:23:39.622Z,100332.06
2022-09-26T02:26:10.031Z,100329.44
2022-09-26T02:28:40.501Z,100328.53
2022-09-26T02:31:20.967Z,100326.75
2022-09-26T02:33:54.191Z,100324.13
2022-09-26T02:36:28.132Z,100328.56
2022-09-26T02:38:59.033Z,100323.28
2022-09-26T02:41:59.043Z,100332.94
2022-09-26T02:44:55.722Z,100322.34
2022-09-26T02:47:56.798Z,100317.91
2022-09-26T02:53:39.864Z,100313.47
2022-09-26T02:56:23.794Z,100316.09
2022-09-26T02:58:59.961Z,100311.69
2022-09-26T03:01:40.610Z,100307.22
2022-09-26T03:04:16.317Z,100306.34
2022-09-26T03:06:49.934Z,100305.47
2022-09-26T03:09:24.152Z,100301.97
2022-09-26T03:11:57.202Z,100303.72
2022-09-26T03:14:28.433Z,100293.09
2022-09-26T03:17:00.743Z,100285.22
2022-09-26T03:19:34.463Z,100283.47
2022-09-26T03:22:04.996Z,100286.16
2022-09-26T03:24:38.743Z,100280.00
2022-09-26T03:27:09.998Z,100278.25
2022-09-26T03:29:40.400Z,100273.84
2022-09-26T03:32:16.039Z,100269.47
2022-09-26T03:34:46.557Z,100266.88
2022-09-26T03:37:17.371Z,100269.56
2022-09-26T03:39:49.211Z,100264.28
2022-09-26T03:42:27.761Z,100260.72
2022-09-26T03:44:59.771Z,100258.06
2022-09-26T03:47:32.711Z,100253.66
2022-09-26T03:50:03.286Z,100250.13
2022-09-26T03:52:33.302Z,100250.97
2022-09-26T03:55:05.512Z,100234.22
2022-09-26T03:57:35.552Z,100238.59
2022-09-26T04:00:18.190Z,100237.69
2022-09-26T04:02:50.591Z,100235.00
2022-09-26T04:05:34.952Z,100237.63
2022-09-26T04:08:06.152Z,100236.69
2022-09-26T04:10:40.694Z,100229.59
2022-09-26T04:13:19.863Z,100233.13
2022-09-26T04:16:03.025Z,100231.34
2022-09-26T04:18:33.082Z,100228.66
2022-09-26T04:21:09.751Z,100227.78
2022-09-26T04:23:42.439Z,100233.03
2022-09-26T04:26:22.901Z,100228.63
2022-09-26T04:28:56.151Z,100229.44
2022-09-26T04:31:35.911Z,100223.22
2022-09-26T04:34:13.101Z,100232.84
2022-09-26T04:36:44.021Z,100225.75
2022-09-26T04:39:14.593Z,100231.91
2022-09-26T04:41:46.672Z,100231.00
2022-09-26T04:44:17.340Z,100223.03
2022-09-26T04:46:48.400Z,100225.66
2022-09-26T04:49:20.406Z,100231.78
2022-09-26T04:51:52.311Z,100229.13
2022-09-26T04:54:22.287Z,100229.94
2022-09-26T04:56:54.061Z,100227.28
2022-09-26T04:59:24.116Z,100229.03
2022-09-26T05:02:02.925Z,100227.22
2022-09-26T05:04:39.384Z,100221.00
2022-09-26T05:07:09.954Z,100217.41
2022-09-26T05:09:42.255Z,100214.72
2022-09-26T05:12:20.713Z,100210.25
2022-09-26T05:14:57.281Z,100212.00
2022-09-26T05:17:28.042Z,100209.22
2022-09-26T05:20:02.814Z,100212.72
2022-09-26T05:22:48.141Z,100210.97
2022-09-26T05:25:36.511Z,100214.50
2022-09-26T05:28:08.332Z,100209.19
2022-09-26T05:30:38.168Z,100208.22
2022-09-26T05:33:08.771Z,100209.13
2022-09-26T05:35:38.871Z,100203.78
2022-09-26T05:38:09.303Z,100201.09
2022-09-26T05:41:00.836Z,100193.16
2022-09-26T05:43:35.360Z,100195.72
2022-09-26T05:46:10.998Z,100190.38
2022-09-26T05:48:47.781Z,100190.31
2022-09-26T05:51:24.742Z,100193.75
2022-09-26T05:53:55.301Z,100186.66
2022-09-26T05:56:28.784Z,100190.13
2022-09-26T05:59:20.791Z,100191.81
2022-09-26T06:02:26.158Z,100190.84
2022-09-26T06:05:15.553Z,100186.28
2022-09-26T06:08:12.410Z,100183.53
2022-09-26T06:10:48.159Z,100187.81
2022-09-26T06:13:18.361Z,100185.97
2022-09-26T06:15:54.954Z,100186.69
2022-09-26T06:18:25.183Z,100189.13
2022-09-26T06:20:55.431Z,100178.41
2022-09-26T06:23:25.783Z,100182.69
2022-09-26T06:25:56.222Z,100176.34
2022-09-26T06:28:27.890Z,100171.50
2022-09-26T06:31:00.770Z,100170.25
2022-09-26T06:33:57.055Z,100176.00
2022-09-26T06:36:39.920Z,100181.50
2022-09-26T06:39:10.381Z,100182.63
2022-09-26T06:41:40.990Z,100195.25
2022-09-26T06:44:29.882Z,100182.53
2022-09-26T06:47:30.476Z,100174.44
2022-09-26T06:50:39.163Z,100178.81
2022-09-26T06:53:10.355Z,100179.66
2022-09-26T06:55:40.681Z,100184.16
2022-09-26T06:58:11.498Z,100182.38
2022-09-26T07:00:54.440Z,100192.19
2022-09-26T07:03:47.031Z,100199.19
2022-09-26T07:06:29.723Z,100204.41
2022-09-26T07:09:03.840Z,100201.00
2022-09-26T07:12:13.692Z,100200.06
2022-09-26T07:14:41.551Z,100201.53
2022-09-26T07:17:21.273Z,100197.94
2022-09-26T07:20:18.406Z,100168.72
2022-09-26T07:22:58.120Z,100193.75
2022-09-26T07:25:29.543Z,100182.88
2022-09-26T07:28:00.024Z,100180.03
2022-09-26T07:30:39.653Z,100183.34
2022-09-26T07:33:29.955Z,100177.03
2022-09-26T07:36:06.932Z,100183.03
2022-09-26T07:38:36.971Z,100179.16
2022-09-26T07:41:11.236Z,100180.75
2022-09-26T07:44:40.847Z,100180.03
2022-09-26T07:46:51.516Z,100170.13
2022-09-26T07:49:39.160Z,100166.75
2022-09-26T07:52:20.883Z,100168.34
2022-09-26T07:55:16.192Z,100168.88
2022-09-26T07:57:53.383Z,100161.19
2022-09-26T08:00:49.561Z,100174.38
2022-09-26T08:03:31.641Z,100176.41
2022-09-26T08:06:04.982Z,100170.84
2022-09-26T08:08:37.926Z,100170.00
2022-09-26T08:11:28.092Z,100168.75
2022-09-26T08:14:12.101Z,100171.22
2022-09-26T08:17:00.103Z,100168.50
2022-09-26T08:19:31.107Z,100161.72
2022-09-26T08:22:01.833Z,100164.19
2022-09-26T08:24:34.549Z,100162.31
2022-09-26T08:27:22.984Z,100156.53
2022-09-26T08:29:54.102Z,100173.41
2022-09-26T08:32:24.602Z,100173.88
2022-09-26T08:34:55.440Z,100174.53
2022-09-26T08:37:48.425Z,100169.66
2022-09-26T08:40:48.241Z,100173.84
2022-09-26T08:43:47.736Z,100169.69
2022-09-26T08:46:48.792Z,100175.91
2022-09-26T08:50:00.181Z,100168.16
2022-09-26T08:52:37.683Z,100168.50
2022-09-26T08:55:16.223Z,100161.66
2022-09-26T08:57:52.194Z,100164.94
2022-09-26T09:00:25.213Z,100163.31
2022-09-26T09:03:26.260Z,100162.28
2022-09-26T09:06:03.682Z,100161.97
2022-09-26T09:08:40.380Z,100162.97
2022-09-26T09:11:51.512Z,100154.63
2022-09-26T09:14:36.882Z,100157.63
2022-09-26T09:17:35.430Z,100152.91
2022-09-26T09:20:58.211Z,100154.91
2022-09-26T09:24:14.744Z,100160.81
2022-09-26T09:30:15.855Z,100153.22
2022-09-26T09:33:02.444Z,100149.88
2022-09-26T09:35:48.851Z,100149.59
2022-09-26T09:38:42.032Z,100157.56
2022-09-26T09:41:26.269Z,100163.78
2022-09-26T09:44:00.311Z,100150.38
2022-09-26T09:46:38.050Z,100164.91
2022-09-26T09:49:21.302Z,100164.13
2022-09-26T09:52:04.394Z,100162.47
2022-09-26T09:54:52.131Z,100163.84
2022-09-26T09:57:42.027Z,100166.97
2022-09-26T10:00:17.578Z,100173.28
2022-09-26T10:03:08.308Z,100161.53
2022-09-26T10:05:45.545Z,100163.06
2022-09-26T10:08:37.630Z,100167.69
2022-09-26T10:11:52.353Z,100163.34
2022-09-26T10:14:56.440Z,100172.28
2022-09-26T10:18:24.043Z,100168.50
2022-09-26T10:21:12.538Z,100170.63
2022-09-26T10:23:47.182Z,100163.28
2022-09-26T10:26:35.202Z,100175.09
2022-09-26T10:29:09.121Z,100165.59
2022-09-26T10:31:42.892Z,100162.63
2022-09-26T10:34:28.505Z,100160.75
2022-09-26T10:37:00.112Z,100169.16
2022-09-26T10:39:50.604Z,100168.47
2022-09-26T10:42:22.021Z,100167.06
2022-09-26T10:45:00.401Z,100164.78
2022-09-26T10:47:51.613Z,100164.38
2022-09-26T10:50:50.562Z,100163.59
2022-09-26T10:53:25.191Z,100156.50
2022-09-26T10:56:00.842Z,100157.38
2022-09-26T10:58:36.398Z,100161.56
2022-09-26T11:01:18.690Z,100158.97
2022-09-26T11:03:51.483Z,100168.81
2022-09-26T11:06:28.061Z,100167.72
2022-09-26T11:09:06.151Z,100167.94
2022-09-26T11:11:42.442Z,100162.63
2022-09-26T11:14:28.042Z,100154.84
2022-09-26T11:17:13.390Z,100162.44
2022-09-26T11:19:53.934Z,100157.50
2022-09-26T11:22:37.663Z,100156.81
2022-09-26T11:25:13.962Z,100163.91
2022-09-26T11:27:50.824Z,100171.00
2022-09-26T11:30:28.272Z,100170.66
2022-09-26T11:33:08.932Z,100159.31
2022-09-26T11:36:18.412Z,100168.22
2022-09-26T11:38:58.040Z,100162.59
2022-09-26T11:41:49.902Z,100155.56
2022-09-26T11:44:51.915Z,100162.78
2022-09-26T11:48:23.002Z,100163.72
2022-09-26T11:51:47.101Z,100154.22
2022-09-26T11:55:01.731Z,100155.66
2022-09-26T11:57:42.713Z,100159.63
2022-09-26T12:00:25.040Z,100154.28
2022-09-26T12:03:21.543Z,100155.16
2022-09-26T12:06:01.605Z,100160.25
2022-09-26T12:08:41.544Z,100167.53
2022-09-26T12:11:24.077Z,100161.50
2022-09-26T12:14:03.721Z,100167.94
2022-09-26T12:16:43.913Z,100155.75
2022-09-26T12:19:22.633Z,100154.59
2022-09-26T12:22:21.011Z,100163.94
2022-09-26T12:24:59.930Z,100163.31
2022-09-26T12:27:39.712Z,100151.06
2022-09-26T12:30:15.891Z,100155.41
2022-09-26T12:33:10.514Z,100159.19
2022-09-26T12:35:53.114Z,100158.66
2022-09-26T12:38:40.282Z,100151.59
2022-09-26T12:41:27.796Z,100153.41
2022-09-26T12:44:31.442Z,100155.41
2022-09-26T12:47:19.761Z,100150.88
2022-09-26T12:50:29.733Z,100148.00
2022-09-26T12:53:23.609Z,100148.56
2022-09-26T12:56:07.111Z,100143.72
2022-09-26T12:58:55.713Z,100147.00
2022-09-26T13:02:06.092Z,100141.91
2022-09-26T13:05:08.131Z,100143.13
2022-09-26T13:07:51.646Z,100131.47
2022-09-26T13:10:34.061Z,100127.66
2022-09-26T13:13:31.777Z,100116.16
2022-09-26T13:16:18.685Z,100126.53
2022-09-26T13:18:52.209Z,100124.03
2022-09-26T13:21:33.380Z,100117.44
2022-09-26T13:24:14.421Z,100121.00
2022-09-26T13:26:52.874Z,100120.94
2022-09-26T13:29:29.298Z,100132.97
2022-09-26T13:32:17.932Z,100129.50
2022-09-26T13:34:55.499Z,100127.50
2022-09-26T13:37:39.742Z,100129.91
2022-09-26T13:40:22.762Z,100127.66
2022-09-26T13:43:03.071Z,100126.06
2022-09-26T13:45:46.953Z,100128.88
2022-09-26T13:48:28.451Z,100123.72
2022-09-26T13:51:09.665Z,100115.84
2022-09-26T13:53:51.467Z,100119.31
2022-09-26T13:56:52.181Z,100116.69
2022-09-26T13:59:43.133Z,100123.03
2022-09-26T14:02:24.338Z,100121.22
2022-09-26T14:05:15.824Z,100116.56
2022-09-26T14:08:10.851Z,100111.13
2022-09-26T14:10:53.831Z,100107.38
2022-09-26T14:13:37.273Z,100112.00
2022-09-26T14:16:33.943Z,100104.03
2022-09-26T14:19:11.409Z,100109.66
2022-09-26T14:21:46.780Z,100107.94
2022-09-26T14:24:32.137Z,100105.59
2022-09-26T14:27:45.197Z,100105.31
2022-09-26T14:30:29.456Z,100106.53
2022-09-26T14:33:06.827Z,100102.03
2022-09-26T14:35:39.257Z,100113.72
2022-09-26T14:38:16.593Z,100105.91
2022-09-26T14:40:56.018Z,100114.13
2022-09-26T14:43:42.206Z,100106.19
2022-09-26T14:46:21.338Z,100110.38
2022-09-26T14:49:02.053Z,100103.25
2022-09-26T14:51:34.268Z,100103.84
2022-09-26T14:54:08.237Z,100102.03
2022-09-26T14:56:46.730Z,100097.31
2022-09-26T14:59:40.425Z,100104.66
2022-09-26T15:02:31.508Z,100105.03
2022-09-26T15:05:20.656Z,100095.28
2022-09-26T15:07:53.860Z,100102.59
2022-09-26T15:10:28.067Z,100100.09
2022-09-26T15:13:03.623Z,100101.19
2022-09-26T15:15:48.534Z,100093.34
2022-09-26T15:18:30.478Z,100104.22
2022-09-26T15:21:05.403Z,100101.84
2022-09-26T15:23:46.457Z,100099.66
2022-09-26T15:26:19.909Z,100102.91
2022-09-26T15:28:52.460Z,100106.25
2022-09-26T15:31:38.498Z,100102.31
2022-09-26T15:34:16.615Z,100103.31
2022-09-26T15:36:52.399Z,100094.75
2022-09-26T15:39:42.221Z,100094.84
2022-09-26T15:42:43.265Z,100089.84
2022-09-26T15:45:30.566Z,100086.25
2022-09-26T15:48:05.183Z,100088.06
2022-09-26T15:50:41.280Z,100088.41
2022-09-26T15:53:24.341Z,100081.41
2022-09-26T15:55:59.649Z,100083.50
2022-09-26T15:58:38.559Z,100089.91
2022-09-26T16:01:09.982Z,100095.50
2022-09-26T16:03:55.486Z,100089.13
2022-09-26T16:06:32.310Z,100097.66
2022-09-26T16:09:09.240Z,100096.63
2022-09-26T16:11:47.989Z,100086.16
2022-09-26T16:14:32.839Z,100088.72
2022-09-26T16:17:13.092Z,100082.81
2022-09-26T16:19:50.758Z,100087.63
2022-09-26T16:22:41.152Z,100080.81
2022-09-26T16:25:34.752Z,100082.75
2022-09-26T16:28:39.707Z,100086.56
2022-09-26T16:31:29.880Z,100087.78
2022-09-26T16:34:01.466Z,100086.81
2022-09-26T16:36:35.448Z,100076.09
2022-09-26T16:39:11.586Z,100077.81
2022-09-26T16:42:02.383Z,100080.56
2022-09-26T16:44:36.863Z,100087.78
2022-09-26T16:47:34.298Z,100083.53
2022-09-26T16:50:28.556Z,100083.63
2022-09-26T16:53:02.789Z,100082.75
2022-09-26T16:55:37.784Z,100077.59
2022-09-26T16:58:08.338Z,100077.66
2022-09-26T17:00:55.827Z,100086.63
2022-09-26T17:03:28.181Z,100083.25
2022-09-26T17:06:02.808Z,100079.75
2022-09-26T17:08:35.442Z,100077.09
2022-09-26T17:11:14.355Z,100076.28
2022-09-26T17:13:45.229Z,100072.66
2022-09-26T17:16:15.524Z,100076.00
2022-09-26T17:18:46.121Z,100071.59
2022-09-26T17:21:16.619Z,100079.75
2022-09-26T17:23:50.041Z,100076.34
2022-09-26T17:26:24.271Z,100077.44
2022-09-26T17:28:57.450Z,100081.84
2022-09-26T17:31:28.132Z,100076.56
2022-09-26T17:33:59.151Z,100072.94
2022-09-26T17:36:31.151Z,100077.31
2022-09-26T17:39:03.201Z,100070.09
2022-09-26T17:41:34.779Z,100077.16
2022-09-26T17:44:05.187Z,100067.44
2022-09-26T17:46:38.727Z,100073.88
2022-09-26T17:49:14.787Z,100067.16
2022-09-26T17:51:46.158Z,100076.91
2022-09-26T17:54:20.623Z,100069.69
2022-09-26T17:56:51.342Z,100064.47
2022-09-26T17:59:24.181Z,100070.00
2022-09-26T18:01:58.618Z,100075.56
2022-09-26T18:04:30.250Z,100072.97
2022-09-26T18:07:05.883Z,100071.19
2022-09-26T18:09:41.291Z,100060.56
2022-09-26T18:12:16.741Z,100067.66
2022-09-26T18:14:47.543Z,100061.53
2022-09-26T18:17:19.642Z,100066.06
2022-09-26T18:19:50.963Z,100065.34
2022-09-26T18:22:24.462Z,100063.72
2022-09-26T18:25:04.699Z,100063.72
2022-09-26T18:27:42.156Z,100054.94
2022-09-26T18:30:16.362Z,100048.00
2022-09-26T18:32:51.479Z,100044.53
2022-09-26T18:35:26.992Z,100044.50
2022-09-26T18:38:01.092Z,100047.09
2022-09-26T18:40:47.854Z,100044.38
2022-09-26T18:43:25.883Z,100044.25
2022-09-26T18:45:58.366Z,100041.47
2022-09-26T18:48:34.738Z,100060.72
2022-09-26T18:51:07.364Z,100059.91
2022-09-26T18:53:42.501Z,100064.41
2022-09-26T18:56:34.957Z,100087.56
2022-09-26T18:59:07.229Z,100109.72
2022-09-26T19:01:41.656Z,100101.19
2022-09-26T19:04:20.762Z,100092.75
2022-09-26T19:07:02.604Z,100093.03
2022-09-26T19:09:36.460Z,100098.53
2022-09-26T19:12:12.848Z,100069.09
2022-09-26T19:14:44.534Z,100104.13
2022-09-26T19:17:18.279Z,100099.78
2022-09-26T19:19:49.393Z,100100.97
2022-09-26T19:22:22.366Z,100092.13
2022-09-26T19:24:59.750Z,100092.28
2022-09-26T19:27:43.595Z,100092.44
2022-09-26T19:30:18.711Z,100089.78
2022-09-26T19:32:54.036Z,100090.75
2022-09-26T19:35:30.629Z,100085.00
2022-09-26T19:38:01.992Z,100078.78
2022-09-26T19:40:34.868Z,100071.53
2022-09-26T19:43:08.212Z,100065.38
2022-09-26T19:45:39.280Z,100064.47
2022-09-26T19:48:14.302Z,100066.41
2022-09-26T19:50:47.410Z,100053.22
2022-09-26T19:53:21.130Z,100049.59
2022-09-26T19:55:51.811Z,100042.59
2022-09-26T19:58:28.102Z,100038.78
2022-09-26T20:01:00.689Z,100041.00
2022-09-26T20:03:35.070Z,100042.03
2022-09-26T20:06:13.052Z,100039.47
2022-09-26T20:08:43.892Z,100033.09
2022-09-26T20:11:14.027Z,100027.81
2022-09-26T20:14:02.992Z,100022.28
2022-09-26T20:16:35.766Z,100017.75
2022-09-26T20:19:08.074Z,100022.44
2022-09-26T20:21:38.234Z,100026.94
2022-09-26T20:24:15.593Z,100024.50
2022-09-26T20:26:46.214Z,100023.75
2022-09-26T20:29:18.933Z,100010.28
2022-09-26T20:31:49.032Z,100012.03
2022-09-26T20:34:20.484Z,99998.59
2022-09-26T20:36:52.973Z,100003.75
2022-09-26T20:39:28.032Z,100001.44
2022-09-26T20:41:58.142Z,99996.19
2022-09-26T20:44:34.072Z,99997.00
2022-09-26T20:47:06.714Z,99995.22
2022-09-26T20:49:45.412Z,100004.00
2022-09-26T20:52:20.502Z,99993.38
2022-09-26T20:54:52.423Z,99997.84
2022-09-26T20:57:23.473Z,99996.03
2022-09-26T20:59:57.104Z,99992.41
2022-09-26T21:02:34.469Z,99985.59
2022-09-26T21:05:05.473Z,99988.38
2022-09-26T21:07:36.925Z,99993.88
2022-09-26T21:10:21.503Z,99991.19
2022-09-26T21:12:52.307Z,99987.56
2022-09-26T21:15:26.092Z,99987.56
2022-09-26T21:17:57.232Z,99986.69
2022-09-26T21:20:31.013Z,99990.31
2022-09-26T21:23:16.642Z,99975.31
2022-09-26T21:25:47.275Z,99979.84
2022-09-26T21:28:28.358Z,99973.53
2022-09-26T21:31:05.075Z,99973.47
2022-09-26T21:33:35.650Z,99975.25
2022-09-26T21:36:06.143Z,99970.72
2022-09-26T21:38:36.343Z,99975.22
2022-09-26T21:41:06.571Z,99977.94
2022-09-26T21:43:42.094Z,99977.22
2022-09-26T21:46:14.146Z,99973.72
2022-09-26T21:48:44.922Z,99967.56
2022-09-26T21:51:15.204Z,99969.19
2022-09-26T21:53:50.272Z,99970.88
2022-09-26T21:56:26.323Z,99952.53
2022-09-26T21:58:57.092Z,99964.66
2022-09-26T22:01:28.754Z,99969.91
2022-09-26T22:03:59.452Z,99971.59
2022-09-26T22:06:29.645Z,99960.97
2022-09-26T22:09:00.032Z,99961.78
2022-09-26T22:11:30.674Z,99966.91
2022-09-26T22:14:01.082Z,99967.69
2022-09-26T22:16:32.691Z,99956.31
2022-09-26T22:19:04.544Z,99950.91
2022-09-26T22:21:35.064Z,99950.22
2022-09-26T22:24:06.025Z,99946.69
2022-09-26T22:26:36.123Z,99956.53
2022-09-26T22:29:06.471Z,99947.59
2022-09-26T22:31:38.434Z,99943.31
2022-09-26T22:34:08.762Z,99953.22
2022-09-26T22:36:38.951Z,99952.41
2022-09-26T22:39:09.403Z,99954.13
2022-09-26T22:41:39.534Z,99945.22
2022-09-26T22:44:09.734Z,99938.97
2022-09-26T22:46:41.926Z,99936.28
2022-09-26T22:49:12.215Z,99927.41
2022-09-26T22:51:42.744Z,99928.25
2022-09-26T22:54:12.964Z,99918.44
2022-09-26T22:56:43.303Z,99919.22
2022-09-26T22:59:13.884Z,99917.50
2022-09-26T23:01:45.842Z,99906.72
2022-09-26T23:04:16.055Z,99913.09
2022-09-26T23:06:46.373Z,99897.22
2022-09-26T23:09:16.575Z,99901.72
2022-09-26T23:11:47.424Z,99908.78
2022-09-26T23:14:17.834Z,99901.66
2022-09-26T23:16:49.375Z,99896.19
2022-09-26T23:19:19.783Z,99893.69
2022-09-26T23:21:50.024Z,99896.63
2022-09-26T23:24:20.753Z,99890.44
2022-09-26T23:26:50.824Z,99892.13
2022-09-26T23:29:21.283Z,99880.66
2022-09-26T23:31:52.822Z,99887.94
2022-09-26T23:34:23.474Z,99883.44
2022-09-26T23:36:53.564Z,99874.56
2022-09-26T23:39:24.266Z,99880.00
2022-09-26T23:41:54.343Z,99885.41
2022-09-26T23:44:24.475Z,99880.09
2022-09-26T23:46:56.484Z,99881.13
2022-09-26T23:49:26.645Z,99871.44
2022-09-26T23:51:57.175Z,99875.75
2022-09-26T23:54:27.253Z,99869.66
2022-09-26T23:56:57.364Z,99874.28
2022-09-26T23:59:27.642Z,99876.22
